Time;durP1;ratioP1;P1;durP2;ratioP2;P2;SDS_P1;SDS_P2;PMS_P1;PMS_P2;Temp;Humidity;BMP_temperature;BMP_pressure;BME280_temperature;BME280_humidity;BME280_pressure;Samples;Min_cycle;Max_cycle;Signal;HPM_P1;HPM_P2
2021/03/21 00:00:23;;;;;;;21.92;15.82;;;3.90;99.90;;;;;;5071985;28;20024;-78
2021/03/21 00:02:49;;;;;;;24.15;17.13;;;3.90;99.90;;;;;;5072307;28;20035;-77
2021/03/21 00:05:15;;;;;;;22.20;15.80;;;3.90;99.90;;;;;;5072479;28;20028;-77
2021/03/21 00:07:41;;;;;;;20.10;14.55;;;3.70;99.90;;;;;;5072249;28;20428;-77
2021/03/21 00:10:07;;;;;;;23.15;15.40;;;3.80;99.90;;;;;;5072523;28;20030;-78
2021/03/21 00:12:33;;;;;;;21.60;14.98;;;3.80;99.90;;;;;;5052563;28;20032;-78
2021/03/21 00:14:59;;;;;;;20.15;14.13;;;3.90;99.90;;;;;;5070177;28;20037;-79
2021/03/21 00:17:24;;;;;;;19.00;14.15;;;3.80;99.90;;;;;;5088954;28;20065;-77
2021/03/21 00:19:50;;;;;;;20.13;13.52;;;3.70;99.90;;;;;;5091464;28;20032;-78
2021/03/21 00:22:16;;;;;;;19.20;14.52;;;3.50;99.90;;;;;;5073927;28;20032;-79
2021/03/21 00:24:42;;;;;;;18.73;14.02;;;3.60;99.90;;;;;;5092018;28;20039;-77
2021/03/21 00:27:08;;;;;;;19.70;14.00;;;3.70;99.90;;;;;;5092065;28;20149;-77
2021/03/21 00:29:34;;;;;;;20.15;13.85;;;3.40;99.90;;;;;;5091313;28;20107;-76
2021/03/21 00:32:00;;;;;;;20.58;13.90;;;3.60;99.90;;;;;;5071433;28;20444;-78
2021/03/21 00:34:26;;;;;;;20.23;13.93;;;3.80;99.90;;;;;;5071105;28;20028;-77
2021/03/21 00:36:51;;;;;;;21.52;15.13;;;3.90;99.90;;;;;;5072006;28;20025;-76
2021/03/21 00:39:17;;;;;;;23.30;16.08;;;3.80;99.90;;;;;;5071628;28;20622;-78
2021/03/21 00:41:43;;;;;;;23.95;15.52;;;3.80;99.90;;;;;;5053879;28;20052;-75
2021/03/21 00:44:08;;;;;;;201.20;98.28;;;3.80;99.90;;;;;;5070506;28;20031;-77
2021/03/21 00:46:34;;;;;;;33.03;24.17;;;4.20;99.90;;;;;;5074620;28;20484;-76
2021/03/21 00:49:00;;;;;;;23.42;16.60;;;4.00;99.90;;;;;;5086310;28;20442;-75
2021/03/21 00:51:26;;;;;;;17.45;13.98;;;3.80;99.90;;;;;;5088599;28;20444;-75
2021/03/21 00:53:51;;;;;;;18.10;12.93;;;3.80;99.90;;;;;;5090053;28;20040;-77
2021/03/21 00:56:27;;;;;;;16.75;13.18;;;3.70;99.90;;;;;;5071983;28;20026;-76
2021/03/21 00:58:54;;;;;;;20.80;13.32;;;3.70;99.90;;;;;;5088151;28;20375;-76
2021/03/21 01:01:20;;;;;;;19.25;13.32;;;3.70;99.90;;;;;;5089903;28;20030;-75
2021/03/21 01:03:46;;;;;;;18.83;12.85;;;3.70;99.90;;;;;;5068926;28;20024;-75
2021/03/21 01:06:12;;;;;;;18.95;13.40;;;3.50;99.90;;;;;;5090235;28;20044;-75
2021/03/21 01:08:39;;;;;;;18.10;13.35;;;3.50;99.90;;;;;;5071838;28;20028;-75
2021/03/21 01:11:05;;;;;;;17.02;12.73;;;3.60;99.90;;;;;;5090137;28;20020;-75
2021/03/21 01:13:32;;;;;;;18.63;13.70;;;3.60;99.90;;;;;;5089711;28;20032;-77
2021/03/21 01:15:57;;;;;;;15.93;11.55;;;3.60;99.90;;;;;;5090360;28;20043;-76
2021/03/21 01:18:29;;;;;;;15.60;10.85;;;3.50;99.90;;;;;;5090963;28;20387;-77
2021/03/21 01:20:55;;;;;;;14.77;11.45;;;3.60;99.90;;;;;;5073327;28;20483;-77
2021/03/21 01:23:21;;;;;;;16.40;11.60;;;3.60;99.90;;;;;;5091283;28;20026;-76
2021/03/21 01:25:47;;;;;;;14.38;10.25;;;3.50;99.90;;;;;;5091296;28;20024;-77
2021/03/21 01:28:30;;;;;;;13.57;10.48;;;3.50;99.90;;;;;;5091220;28;20055;-78
2021/03/21 01:31:00;;;;;;;11.88;9.98;;;3.40;99.90;;;;;;5091130;28;20020;-76
2021/03/21 01:33:29;;;;;;;13.20;9.70;;;3.40;99.90;;;;;;5072896;28;20043;-74
2021/03/21 01:35:56;;;;;;;12.35;9.35;;;3.40;99.90;;;;;;5090950;28;20021;-78
2021/03/21 01:38:22;;;;;;;12.57;9.68;;;3.40;99.90;;;;;;5091237;28;20032;-78
2021/03/21 01:40:51;;;;;;;12.00;9.68;;;3.10;99.90;;;;;;5090819;28;20017;-76
2021/03/21 01:43:19;;;;;;;13.82;10.10;;;3.00;99.90;;;;;;5094851;28;20024;-76
2021/03/21 01:45:48;;;;;;;12.93;9.85;;;3.10;99.90;;;;;;5094647;28;20032;-77
2021/03/21 01:48:18;;;;;;;12.85;9.80;;;3.20;99.90;;;;;;5095105;28;20028;-78
2021/03/21 01:51:11;;;;;;;12.20;9.75;;;3.30;99.90;;;;;;5094733;28;20119;-77
2021/03/21 01:53:40;;;;;;;13.77;10.27;;;3.30;99.90;;;;;;5065187;28;20036;-78
2021/03/21 01:56:09;;;;;;;12.43;9.52;;;3.10;99.90;;;;;;5084172;28;20028;-79
2021/03/21 01:58:36;;;;;;;13.35;9.93;;;3.10;99.90;;;;;;5057373;28;20051;-78
2021/03/21 02:01:12;;;;;;;13.27;10.07;;;3.20;99.90;;;;;;5056863;28;20353;-78
2021/03/21 02:03:38;;;;;;;11.88;9.55;;;3.30;99.90;;;;;;5057385;28;20028;-77
2021/03/21 02:06:15;;;;;;;14.35;10.40;;;3.40;99.90;;;;;;5075300;28;20028;-77
2021/03/21 02:08:57;;;;;;;14.60;10.95;;;3.40;99.90;;;;;;5075348;28;20106;-77
2021/03/21 02:11:33;;;;;;;13.18;9.82;;;3.40;99.90;;;;;;5074963;28;20032;-74
2021/03/21 02:14:15;;;;;;;13.15;10.40;;;3.50;99.90;;;;;;5074459;28;20101;-78
2021/03/21 02:16:58;;;;;;;14.82;10.80;;;3.50;99.90;;;;;;5074667;28;20084;-77
2021/03/21 02:19:27;;;;;;;14.60;10.80;;;3.50;99.90;;;;;;5056648;28;20468;-76
2021/03/21 02:21:57;;;;;;;12.93;10.23;;;3.30;99.90;;;;;;5075077;28;20089;-79
2021/03/21 02:24:44;;;;;;;13.90;11.02;;;3.30;99.90;;;;;;5074367;28;20052;-77
2021/03/21 02:27:44;;;;;;;15.73;10.70;;;3.30;99.90;;;;;;5074752;28;20444;-78
2021/03/21 02:30:17;;;;;;;12.48;9.90;;;3.40;99.90;;;;;;5074424;28;20105;-77
2021/03/21 02:33:06;;;;;;;11.82;9.35;;;3.40;99.90;;;;;;5074314;28;20026;-77
2021/03/21 02:35:46;;;;;;;11.00;8.88;;;3.00;99.90;;;;;;5074538;28;20039;-78
2021/03/21 02:38:35;;;;;;;12.68;10.27;;;2.90;99.90;;;;;;5074642;28;20035;-77
2021/03/21 02:41:04;;;;;;;14.50;10.93;;;3.10;99.90;;;;;;5056962;28;20055;-78
2021/03/21 02:43:40;;;;;;;13.00;10.32;;;3.20;99.90;;;;;;5074696;28;20442;-77
2021/03/21 02:46:23;;;;;;;13.85;10.20;;;3.20;99.90;;;;;;5074869;28;20033;-77
2021/03/21 02:49:15;;;;;;;14.88;11.00;;;3.30;99.90;;;;;;5089636;28;20031;-77
2021/03/21 02:51:45;;;;;;;14.18;10.68;;;3.20;99.90;;;;;;5094088;28;20052;-77
2021/03/21 02:54:28;;;;;;;15.70;11.70;;;3.20;99.90;;;;;;5093755;28;20040;-77
2021/03/21 02:57:07;;;;;;;18.88;11.85;;;3.10;99.90;;;;;;5075771;28;20107;-77
2021/03/21 02:59:37;;;;;;;19.65;13.60;;;2.90;99.90;;;;;;5094688;28;20028;-76
2021/03/21 03:02:15;;;;;;;20.20;14.88;;;2.90;99.90;;;;;;5094587;28;20016;-79
2021/03/21 03:04:46;;;;;;;21.52;13.82;;;2.90;99.90;;;;;;5094687;28;20548;-77
2021/03/21 03:07:14;;;;;;;22.48;14.82;;;3.00;99.90;;;;;;5094865;28;20123;-78
2021/03/21 03:09:54;;;;;;;21.02;14.82;;;3.10;99.90;;;;;;5094629;28;20353;-78
2021/03/21 03:12:33;;;;;;;23.77;16.10;;;2.80;99.90;;;;;;5094145;28;20036;-78
2021/03/21 03:15:21;;;;;;;24.27;16.23;;;2.80;99.90;;;;;;5094235;28;20063;-78
2021/03/21 03:17:54;;;;;;;23.45;15.75;;;2.60;99.90;;;;;;5075290;28;20131;-81
2021/03/21 03:20:32;;;;;;;26.52;17.15;;;2.60;99.90;;;;;;5093892;28;20403;-77
2021/03/21 03:23:15;;;;;;;25.58;16.25;;;2.80;99.90;;;;;;5094042;28;20032;-78
2021/03/21 03:26:02;;;;;;;24.83;16.60;;;2.80;99.90;;;;;;5094182;28;20024;-76
2021/03/21 03:29:03;;;;;;;24.95;16.63;;;2.90;99.90;;;;;;5074976;28;20463;-75
2021/03/21 03:31:42;;;;;;;23.92;16.30;;;3.00;99.90;;;;;;5052349;28;20036;-75
2021/03/21 03:34:08;;;;;;;22.42;15.98;;;3.00;99.90;;;;;;5093770;28;20127;-76
2021/03/21 03:36:34;;;;;;;22.50;14.95;;;3.10;99.90;;;;;;5094050;28;20111;-76
2021/03/21 03:39:00;;;;;;;19.13;14.73;;;3.20;99.90;;;;;;5093167;28;20107;-76
2021/03/21 03:41:46;;;;;;;20.02;14.73;;;3.10;99.90;;;;;;5093534;28;20036;-76
2021/03/21 03:44:28;;;;;;;20.33;14.55;;;3.10;99.90;;;;;;5093280;28;20031;-78
2021/03/21 03:47:16;;;;;;;20.30;14.15;;;3.10;99.90;;;;;;5093592;28;20021;-76
2021/03/21 03:50:03;;;;;;;17.42;13.45;;;3.10;99.90;;;;;;5054994;28;20455;-75
2021/03/21 03:52:50;;;;;;;18.45;13.50;;;3.00;99.90;;;;;;5055008;28;20118;-76
2021/03/21 03:55:44;;;;;;;19.40;13.32;;;3.20;99.90;;;;;;5072465;28;20035;-75
2021/03/21 03:58:27;;;;;;;15.80;11.80;;;3.20;99.90;;;;;;5072101;28;20522;-75
2021/03/21 04:01:15;;;;;;;21.45;13.32;;;3.20;99.90;;;;;;5072468;28;20120;-75
2021/03/21 04:03:56;;;;;;;17.58;12.68;;;3.20;99.90;;;;;;5072609;28;20032;-76
2021/03/21 04:06:25;;;;;;;17.30;12.65;;;3.30;99.90;;;;;;5054703;28;20062;-76
2021/03/21 04:08:57;;;;;;;18.35;12.27;;;3.30;99.90;;;;;;5072895;28;20021;-77
2021/03/21 04:11:50;;;;;;;17.45;12.07;;;3.30;99.90;;;;;;5072955;28;20379;-76
2021/03/21 04:14:23;;;;;;;20.02;14.13;;;3.30;99.90;;;;;;5073155;28;20146;-78
2021/03/21 04:16:52;;;;;;;19.15;14.20;;;3.20;99.90;;;;;;5072689;28;20038;-77
2021/03/21 04:19:23;;;;;;;20.05;13.68;;;3.10;99.90;;;;;;5072931;28;20029;-77
2021/03/21 04:21:58;;;;;;;21.90;13.63;;;3.10;99.90;;;;;;5071273;28;20361;-77
2021/03/21 04:24:35;;;;;;;20.50;14.45;;;3.20;99.90;;;;;;5072479;28;20035;-76
2021/03/21 04:27:20;;;;;;;22.05;14.30;;;3.10;99.90;;;;;;5054404;28;20025;-77
2021/03/21 04:30:01;;;;;;;20.67;13.77;;;3.10;99.90;;;;;;5072758;28;20615;-78
2021/03/21 04:32:46;;;;;;;20.38;14.27;;;3.30;99.90;;;;;;5072738;28;20372;-75
2021/03/21 04:35:19;;;;;;;20.55;14.00;;;3.40;99.90;;;;;;5054566;28;20040;-78
2021/03/21 04:37:50;;;;;;;20.17;13.48;;;3.40;99.90;;;;;;5054834;28;20060;-78
2021/03/21 04:40:19;;;;;;;21.42;14.05;;;3.40;99.90;;;;;;5053997;28;20075;-77
2021/03/21 04:43:11;;;;;;;17.48;13.95;;;3.30;99.90;;;;;;5072478;28;20412;-76
2021/03/21 04:45:47;;;;;;;22.75;13.68;;;3.30;99.90;;;;;;5071674;28;20090;-76
2021/03/21 04:48:19;;;;;;;22.30;15.13;;;3.20;99.90;;;;;;5078757;28;20526;-77
2021/03/21 04:50:45;;;;;;;22.20;14.40;;;3.20;99.90;;;;;;5092066;28;20040;-76
2021/03/21 04:53:35;;;;;;;20.80;13.80;;;3.20;99.90;;;;;;5092241;28;20036;-76
2021/03/21 04:56:12;;;;;;;20.25;13.85;;;3.00;99.90;;;;;;5073431;28;20107;-77
2021/03/21 04:58:41;;;;;;;20.35;14.15;;;3.10;99.90;;;;;;5073806;28;20114;-75
2021/03/21 05:01:31;;;;;;;21.10;14.50;;;3.10;99.90;;;;;;5091719;28;20024;-76
2021/03/21 05:04:20;;;;;;;18.42;12.85;;;3.00;99.90;;;;;;5092189;28;20024;-75
2021/03/21 05:06:51;;;;;;;21.13;14.20;;;3.10;99.90;;;;;;5092391;28;20031;-78
2021/03/21 05:09:42;;;;;;;23.52;14.23;;;3.00;99.90;;;;;;5092106;28;20024;-77
2021/03/21 05:12:20;;;;;;;23.02;14.65;;;2.80;99.90;;;;;;5092245;28;20375;-77
2021/03/21 05:15:05;;;;;;;21.40;15.20;;;2.90;99.90;;;;;;5092326;28;20111;-76
2021/03/21 05:17:46;;;;;;;22.85;15.43;;;3.00;99.90;;;;;;5091592;28;20047;-76
2021/03/21 05:20:30;;;;;;;20.58;15.00;;;2.90;99.90;;;;;;5091958;28;20024;-76
2021/03/21 05:23:30;;;;;;;23.55;15.52;;;3.00;99.90;;;;;;5074275;28;20108;-76
2021/03/21 05:26:15;;;;;;;23.03;15.07;;;3.00;99.90;;;;;;5073895;28;20028;-77
2021/03/21 05:28:54;;;;;;;22.63;15.95;;;3.10;99.90;;;;;;5091547;28;20328;-76
2021/03/21 05:31:22;;;;;;;21.35;14.55;;;3.20;99.90;;;;;;5091701;28;20020;-77
2021/03/21 05:33:47;;;;;;;23.42;15.40;;;3.10;99.90;;;;;;5091423;28;20032;-76
2021/03/21 05:36:52;;;;;;;24.15;16.83;;;2.90;99.90;;;;;;5091973;28;20028;-77
2021/03/21 05:39:30;;;;;;;22.27;15.75;;;2.90;99.90;;;;;;5087122;28;20032;-76
2021/03/21 05:41:58;;;;;;;25.35;16.70;;;3.00;99.90;;;;;;5073386;28;20070;-76
2021/03/21 05:44:39;;;;;;;23.33;15.50;;;3.00;99.90;;;;;;5091302;28;20074;-76
2021/03/21 05:47:42;;;;;;;21.33;15.02;;;3.00;99.90;;;;;;5091705;28;20027;-76
2021/03/21 05:50:39;;;;;;;22.70;14.95;;;2.90;99.90;;;;;;5071353;28;20059;-77
2021/03/21 05:53:35;;;;;;;22.30;15.60;;;3.00;99.90;;;;;;5071521;28;20411;-76
2021/03/21 05:56:25;;;;;;;19.85;15.00;;;3.20;99.90;;;;;;5071417;28;20107;-77
2021/03/21 05:58:59;;;;;;;22.10;15.27;;;3.20;99.90;;;;;;5071434;28;20024;-76
2021/03/21 06:01:52;;;;;;;24.52;16.10;;;3.30;99.90;;;;;;5071324;28;20033;-77
2021/03/21 06:05:01;;;;;;;22.25;15.70;;;3.20;99.90;;;;;;5071078;28;20032;-76
2021/03/21 06:07:52;;;;;;;22.48;14.85;;;3.30;99.90;;;;;;5052593;28;20032;-75
2021/03/21 06:10:20;;;;;;;;;;;3.40;99.90;;;;;;5071439;28;20403;-75
2021/03/21 06:13:12;;;;;;;24.60;15.73;;;2.90;99.90;;;;;;5070476;28;20272;-74
2021/03/21 06:16:21;;;;;;;24.55;16.95;;;3.00;99.90;;;;;;5053047;28;20620;-75
2021/03/21 06:19:11;;;;;;;21.92;15.85;;;3.20;99.90;;;;;;5056408;28;20041;-75
2021/03/21 06:21:58;;;;;;;23.90;16.35;;;3.30;99.90;;;;;;5071388;28;20056;-76
2021/03/21 06:24:42;;;;;;;23.83;16.13;;;3.50;99.90;;;;;;5070544;28;20052;-76
2021/03/21 06:27:45;;;;;;;24.48;16.50;;;3.50;99.90;;;;;;5071252;28;20050;-77
2021/03/21 06:30:14;;;;;;;22.77;15.52;;;3.60;99.90;;;;;;5074540;28;20023;-75
2021/03/21 06:33:07;;;;;;;22.67;15.45;;;3.70;99.90;;;;;;5056347;28;20145;-74
2021/03/21 06:35:39;;;;;;;22.95;15.90;;;3.60;99.90;;;;;;5074151;28;20040;-76
2021/03/21 06:38:59;;;;;;;23.02;15.48;;;3.50;99.90;;;;;;5073844;28;20063;-76
2021/03/21 06:41:43;;;;;;;24.67;16.30;;;3.70;99.90;;;;;;5074283;28;20021;-76
2021/03/21 06:44:30;;;;;;;23.70;16.50;;;3.70;99.90;;;;;;5074211;28;20031;-76
2021/03/21 06:47:31;;;;;;;20.98;15.27;;;3.70;99.90;;;;;;5074184;28;20100;-76
2021/03/21 06:50:15;;;;;;;21.13;14.80;;;3.80;99.90;;;;;;5092308;28;20107;-77
2021/03/21 06:53:00;;;;;;;18.88;14.40;;;3.70;99.90;;;;;;5076078;28;20047;-78
2021/03/21 06:55:36;;;;;;;18.58;14.38;;;3.70;99.90;;;;;;5076442;28;20032;-74
2021/03/21 06:58:11;;;;;;;22.00;15.05;;;3.60;99.90;;;;;;5094151;28;20016;-76
2021/03/21 07:00:55;;;;;;;20.80;14.57;;;3.50;99.90;;;;;;5094431;28;20023;-76
2021/03/21 07:03:36;;;;;;;22.08;14.32;;;3.50;99.90;;;;;;5094190;28;20035;-77
2021/03/21 07:06:30;;;;;;;21.30;14.77;;;3.40;99.90;;;;;;5094891;28;20035;-78
2021/03/21 07:09:07;;;;;;;21.42;15.20;;;3.30;99.90;;;;;;5094430;28;20032;-78
2021/03/21 07:12:11;;;;;;;25.08;16.30;;;3.00;99.90;;;;;;5076041;28;20115;-77
2021/03/21 07:14:59;;;;;;;26.00;16.35;;;3.30;99.90;;;;;;5075998;28;20028;-76
2021/03/21 07:17:49;;;;;;;30.55;19.50;;;3.40;99.90;;;;;;5094139;28;20054;-75
2021/03/21 07:20:44;;;;;;;31.67;20.50;;;3.40;99.90;;;;;;5093341;28;20208;-75
2021/03/21 07:23:28;;;;;;;33.30;20.92;;;3.20;99.90;;;;;;5061802;28;20024;-75
2021/03/21 07:26:09;;;;;;;31.33;19.10;;;3.30;99.90;;;;;;5075625;28;20036;-77
2021/03/21 07:28:57;;;;;;;33.03;20.30;;;3.30;99.90;;;;;;5093987;28;20107;-78
2021/03/21 07:31:32;;;;;;;28.02;18.20;;;3.20;99.90;;;;;;5027323;28;20448;-76
2021/03/21 07:34:28;;;;;;;28.58;18.52;;;3.20;99.90;;;;;;5093444;28;20123;-78
2021/03/21 07:37:20;;;;;;;28.83;18.58;;;3.40;99.90;;;;;;5093627;28;20039;-78
2021/03/21 07:40:10;;;;;;;28.42;18.85;;;3.40;99.90;;;;;;5092861;28;20024;-77
2021/03/21 07:42:52;;;;;;;26.90;17.77;;;3.40;99.90;;;;;;5093603;28;20548;-78
2021/03/21 07:45:49;;;;;;;29.65;18.33;;;3.50;99.90;;;;;;5093112;28;20032;-76
2021/03/21 07:48:41;;;;;;;28.08;17.92;;;3.50;99.90;;;;;;5092854;28;20062;-78
2021/03/21 07:51:11;;;;;;;26.70;18.65;;;3.60;99.90;;;;;;5071791;28;20071;-78
2021/03/21 07:53:57;;;;;;;29.02;19.00;;;3.70;99.90;;;;;;5072831;28;20021;-78
2021/03/21 07:56:40;;;;;;;30.50;19.15;;;3.80;99.90;;;;;;5054964;28;20393;-77
2021/03/21 07:59:16;;;;;;;30.55;19.13;;;3.90;99.90;;;;;;5054808;28;20035;-76
2021/03/21 08:01:42;;;;;;;26.50;17.30;;;3.90;99.90;;;;;;5072649;28;20025;-78
2021/03/21 08:04:30;;;;;;;24.80;16.80;;;3.80;99.90;;;;;;5072419;28;20021;-77
2021/03/21 08:07:07;;;;;;;24.63;17.27;;;3.90;99.90;;;;;;5053910;28;20051;-77
2021/03/21 08:09:38;;;;;;;24.35;16.90;;;3.90;99.90;;;;;;5053653;28;20028;-77
2021/03/21 08:12:21;;;;;;;25.38;18.05;;;4.00;99.90;;;;;;5072570;28;20027;-77
2021/03/21 08:14:48;;;;;;;26.45;18.10;;;4.10;99.90;;;;;;5072303;28;20522;-76
2021/03/21 08:17:21;;;;;;;29.98;19.25;;;4.20;99.90;;;;;;5072231;28;20024;-76
2021/03/21 08:19:51;;;;;;;26.60;17.77;;;4.30;99.90;;;;;;5072172;28;20032;-76
2021/03/21 08:22:22;;;;;;;25.00;17.97;;;4.10;99.90;;;;;;5072434;28;20036;-76
2021/03/21 08:24:49;;;;;;;27.20;18.05;;;4.10;99.90;;;;;;5072033;28;20686;-75
2021/03/21 08:27:32;;;;;;;27.65;18.17;;;4.30;99.90;;;;;;5072153;28;20027;-75
2021/03/21 08:30:08;;;;;;;25.38;17.85;;;4.50;99.90;;;;;;5072379;28;20601;-78
2021/03/21 08:32:48;;;;;;;24.15;16.80;;;4.70;99.90;;;;;;5072251;28;20074;-79
2021/03/21 08:35:18;;;;;;;21.30;15.73;;;4.70;99.90;;;;;;5071859;28;20463;-79
2021/03/21 08:37:47;;;;;;;22.35;15.68;;;4.60;99.90;;;;;;5072434;28;20034;-79
2021/03/21 08:40:22;;;;;;;24.25;16.73;;;4.70;99.90;;;;;;5054046;28;20036;-78
2021/03/21 08:42:55;;;;;;;24.08;16.02;;;4.20;99.90;;;;;;5071930;28;20071;-77
2021/03/21 08:45:28;;;;;;;26.42;17.42;;;4.10;99.90;;;;;;5071572;28;20043;-78
2021/03/21 08:48:01;;;;;;;26.40;16.83;;;3.90;99.90;;;;;;5072162;28;20396;-77
2021/03/21 08:50:40;;;;;;;21.95;15.45;;;3.80;99.90;;;;;;5072383;28;20406;-77
2021/03/21 08:53:31;;;;;;;22.77;15.30;;;4.10;99.90;;;;;;5082291;28;20028;-77
2021/03/21 08:56:23;;;;;;;23.50;15.43;;;3.90;99.90;;;;;;5075188;28;20055;-78
2021/03/21 08:59:08;;;;;;;27.73;17.60;;;3.90;99.90;;;;;;5092114;28;20036;-77
2021/03/21 09:01:35;;;;;;;26.67;17.58;;;3.80;99.90;;;;;;5091354;28;20020;-77
2021/03/21 09:04:17;;;;;;;29.55;19.15;;;4.00;99.90;;;;;;5091893;28;20063;-77
2021/03/21 09:06:47;;;;;;;89.22;50.75;;;4.30;99.90;;;;;;5091837;28;20036;-77
2021/03/21 09:09:22;;;;;;;120.07;63.78;;;4.30;99.90;;;;;;5091739;28;20036;-76
2021/03/21 09:11:54;;;;;;;136.98;72.47;;;4.50;99.90;;;;;;5090842;28;20024;-76
2021/03/21 09:14:31;;;;;;;143.68;75.55;;;4.60;99.90;;;;;;5091957;28;20367;-77
2021/03/21 09:17:02;;;;;;;118.22;65.80;;;4.60;99.90;;;;;;5073149;28;20464;-76
2021/03/21 09:19:35;;;;;;;68.60;42.35;;;4.80;99.90;;;;;;5091709;28;20062;-78
2021/03/21 09:22:27;;;;;;;48.50;32.03;;;4.70;99.90;;;;;;5091523;28;20032;-76
2021/03/21 09:25:14;;;;;;;33.70;22.27;;;4.60;99.90;;;;;;5091537;28;20057;-76
2021/03/21 09:27:42;;;;;;;30.70;21.42;;;4.30;99.90;;;;;;5074156;28;20034;-78
2021/03/21 09:30:20;;;;;;;30.20;20.50;;;4.00;99.90;;;;;;5072804;28;20028;-78
2021/03/21 09:32:59;;;;;;;30.90;21.00;;;4.00;99.90;;;;;;5090984;28;20526;-77
2021/03/21 09:35:32;;;;;;;33.40;22.20;;;4.00;99.90;;;;;;5091118;28;20395;-76
2021/03/21 09:38:24;;;;;;;32.83;21.05;;;4.00;99.90;;;;;;5089933;28;20021;-76
2021/03/21 09:40:55;;;;;;;31.17;20.25;;;4.10;99.90;;;;;;5089659;28;20458;-76
2021/03/21 09:43:26;;;;;;;31.67;19.55;;;3.70;99.90;;;;;;5090796;28;20024;-76
2021/03/21 09:46:07;;;;;;;30.73;20.95;;;3.70;99.90;;;;;;5072858;28;20404;-76
2021/03/21 09:48:43;;;;;;;26.92;19.25;;;3.90;99.90;;;;;;5090779;28;20452;-75
2021/03/21 09:51:24;;;;;;;28.33;19.55;;;4.00;99.90;;;;;;5090893;28;20044;-78
2021/03/21 09:54:12;;;;;;;30.33;19.13;;;4.00;99.90;;;;;;5091043;28;20093;-77
2021/03/21 09:57:00;;;;;;;30.33;20.35;;;4.20;99.90;;;;;;5090524;28;20374;-77
2021/03/21 09:59:38;;;;;;;28.40;18.90;;;4.00;99.90;;;;;;5090859;28;20028;-77
2021/03/21 10:02:32;;;;;;;28.92;19.20;;;3.80;99.90;;;;;;5090046;28;20049;-76
2021/03/21 10:05:18;;;;;;;26.70;18.58;;;4.00;99.90;;;;;;5091482;28;20050;-76
2021/03/21 10:08:08;;;;;;;29.17;19.23;;;4.00;99.90;;;;;;5093986;28;20383;-76
2021/03/21 10:10:57;;;;;;;28.10;19.27;;;4.10;99.90;;;;;;5093916;28;20063;-76
2021/03/21 10:13:31;;;;;;;25.65;18.92;;;4.30;99.90;;;;;;5093745;28;20039;-76
2021/03/21 10:16:16;;;;;;;24.60;17.25;;;4.30;99.90;;;;;;5092890;28;20486;-78
2021/03/21 10:19:07;;;;;;;66.97;38.85;;;4.70;99.90;;;;;;5095095;28;20012;-78
2021/03/21 10:21:50;;;;;;;25.88;17.63;;;5.80;99.90;;;;;;5064561;28;20113;-78
2021/03/21 10:24:22;;;;;;;25.08;16.88;;;5.00;99.90;;;;;;5094373;28;20027;-77
2021/03/21 10:27:22;;;;;;;23.52;17.08;;;5.20;99.90;;;;;;5094224;28;20383;-77
2021/03/21 10:30:22;;;;;;;21.40;16.75;;;5.40;99.90;;;;;;5094177;28;20016;-78
2021/03/21 10:33:00;;;;;;;22.58;15.82;;;5.20;99.90;;;;;;5075704;28;20036;-76
2021/03/21 10:35:29;;;;;;;23.48;16.98;;;5.50;99.90;;;;;;5102382;28;20055;-79
2021/03/21 10:37:58;;;;;;;22.05;15.40;;;5.40;99.90;;;;;;5106075;28;20023;-77
2021/03/21 10:40:24;;;;;;;21.42;15.38;;;5.40;99.90;;;;;;5094189;28;20027;-77
2021/03/21 10:43:01;;;;;;;19.65;14.38;;;5.50;99.90;;;;;;5093776;28;20104;-77
2021/03/21 10:45:35;;;;;;;19.23;14.05;;;5.60;99.90;;;;;;5093647;28;20027;-77
2021/03/21 10:48:09;;;;;;;19.52;13.77;;;5.30;99.90;;;;;;5093956;28;20024;-77
2021/03/21 10:50:59;;;;;;;22.23;14.55;;;5.40;99.90;;;;;;5092895;28;20474;-78
2021/03/21 10:53:27;;;;;;;18.10;13.40;;;5.40;99.90;;;;;;5093887;28;20390;-80
2021/03/21 10:55:59;;;;;;;18.85;14.60;;;5.30;99.90;;;;;;5093281;28;20272;-78
2021/03/21 10:58:34;;;;;;;18.67;14.45;;;5.40;99.90;;;;;;5093211;28;20016;-78
2021/03/21 11:01:22;;;;;;;19.48;13.95;;;5.50;99.90;;;;;;5093299;28;20032;-80
2021/03/21 11:03:55;;;;;;;19.80;14.75;;;5.40;99.90;;;;;;5093761;28;20105;-77
2021/03/21 11:06:22;;;;;;;23.35;16.20;;;5.30;99.90;;;;;;5074875;28;20032;-77
2021/03/21 11:08:50;;;;;;;25.60;15.60;;;5.10;99.90;;;;;;5093619;28;20020;-78
2021/03/21 11:11:25;;;;;;;22.83;15.73;;;5.10;99.90;;;;;;5075032;28;20016;-76
2021/03/21 11:13:53;;;;;;;22.65;15.88;;;5.10;99.90;;;;;;5092299;28;20046;-76
2021/03/21 11:16:24;;;;;;;21.67;16.25;;;5.10;99.90;;;;;;5093259;28;20031;-79
2021/03/21 11:19:01;;;;;;;23.13;15.93;;;5.10;99.90;;;;;;5093558;28;20039;-79
2021/03/21 11:21:33;;;;;;;22.80;15.18;;;5.10;99.90;;;;;;5074509;28;20028;-79
2021/03/21 11:24:03;;;;;;;20.63;14.52;;;4.90;99.90;;;;;;5093194;28;20035;-78
2021/03/21 11:26:32;;;;;;;;;;;4.90;99.90;;;;;;5091953;28;20037;-76
2021/03/21 11:29:08;;;;;;;20.90;15.18;;;4.60;99.90;;;;;;5093380;28;19904;-79
2021/03/21 11:31:49;;;;;;;20.23;15.68;;;4.80;99.90;;;;;;5092667;28;20020;-78
2021/03/21 11:34:22;;;;;;;20.48;15.00;;;4.80;99.90;;;;;;5093245;28;20418;-78
2021/03/21 11:37:03;;;;;;;22.25;15.80;;;4.60;99.90;;;;;;5092592;28;20024;-78
2021/03/21 11:39:39;;;;;;;24.65;16.10;;;4.60;99.90;;;;;;5092998;28;20115;-79
2021/03/21 11:42:24;;;;;;;21.42;16.10;;;4.60;99.90;;;;;;5091611;28;20021;-78
2021/03/21 11:45:27;;;;;;;20.08;15.45;;;4.10;99.90;;;;;;5087395;28;20031;-79
2021/03/21 11:47:56;;;;;;;75.93;43.42;;;4.40;99.90;;;;;;5088813;28;20032;-79
2021/03/21 11:50:27;;;;;;;35.72;22.17;;;5.50;99.90;;;;;;5092425;28;20028;-77
2021/03/21 11:52:54;;;;;;;28.88;19.42;;;5.60;99.90;;;;;;5085792;28;20031;-79
2021/03/21 11:55:27;;;;;;;18.10;14.23;;;5.10;99.90;;;;;;5074380;28;20032;-77
2021/03/21 11:58:17;;;;;;;19.05;14.02;;;4.30;99.90;;;;;;5090622;28;20020;-79
2021/03/21 12:01:01;;;;;;;16.75;13.13;;;4.00;99.90;;;;;;5092640;28;20344;-78
2021/03/21 12:03:29;;;;;;;18.45;13.63;;;4.00;99.90;;;;;;5092347;28;20032;-78
2021/03/21 12:05:58;;;;;;;20.38;13.98;;;4.20;99.90;;;;;;5073710;28;20384;-78
2021/03/21 12:08:36;;;;;;;19.38;14.38;;;4.20;99.90;;;;;;5075491;28;20096;-80
2021/03/21 12:11:18;;;;;;;19.35;13.80;;;4.00;99.90;;;;;;5091902;28;20034;-80
2021/03/21 12:13:45;;;;;;;19.90;14.02;;;4.10;99.90;;;;;;5072040;28;20028;-79
2021/03/21 12:16:37;;;;;;;17.90;13.85;;;4.20;99.90;;;;;;5089781;28;20036;-80
2021/03/21 12:19:05;;;;;;;18.08;13.45;;;4.20;99.90;;;;;;5060644;28;20111;-80
2021/03/21 12:21:36;;;;;;;18.83;14.07;;;4.10;99.90;;;;;;5071252;28;20025;-79
2021/03/21 12:24:11;;;;;;;18.40;13.55;;;4.10;99.90;;;;;;5087519;28;20173;-79
2021/03/21 12:26:40;;;;;;;18.70;13.50;;;4.10;99.90;;;;;;5089094;28;20028;-79
2021/03/21 12:29:24;;;;;;;18.00;12.70;;;4.10;99.90;;;;;;5090734;28;20020;-80
2021/03/21 12:32:11;;;;;;;15.95;12.10;;;4.10;99.90;;;;;;5073138;28;20040;-82
2021/03/21 12:34:46;;;;;;;15.88;12.70;;;3.90;99.90;;;;;;5084316;28;20051;-81
2021/03/21 12:37:19;;;;;;;16.75;11.45;;;4.00;99.90;;;;;;5069520;28;20028;-77
2021/03/21 12:40:10;;;;;;;17.23;12.43;;;3.90;99.90;;;;;;5075320;28;20016;-82
2021/03/21 12:42:40;;;;;;;16.17;11.85;;;3.80;99.90;;;;;;5078543;28;20032;-78
2021/03/21 12:45:13;;;;;;;16.83;12.05;;;3.50;99.90;;;;;;5091447;28;20020;-78
2021/03/21 12:47:46;;;;;;;15.15;11.88;;;3.50;99.90;;;;;;5070148;28;20078;-79
2021/03/21 12:50:34;;;;;;;17.27;13.10;;;3.70;99.90;;;;;;5090180;28;20098;-78
2021/03/21 12:53:10;;;;;;;18.05;12.70;;;3.80;99.90;;;;;;5089018;28;20062;-78
2021/03/21 12:55:37;;;;;;;20.02;13.70;;;3.60;99.90;;;;;;5090344;28;20059;-79
2021/03/21 12:58:03;;;;;;;19.35;14.07;;;3.40;99.90;;;;;;5091174;28;20375;-78
2021/03/21 13:00:33;;;;;;;21.70;14.95;;;3.60;99.90;;;;;;5072844;28;20077;-78
2021/03/21 13:03:02;;;;;;;20.02;14.27;;;3.60;99.90;;;;;;5091056;28;20020;-79
2021/03/21 13:05:40;;;;;;;20.77;14.43;;;3.50;99.90;;;;;;5091091;28;20036;-85
2021/03/21 13:08:08;;;;;;;20.38;15.00;;;3.50;99.90;;;;;;5091161;28;20036;-78
2021/03/21 13:10:34;;;;;;;22.70;14.80;;;3.30;99.90;;;;;;5090824;28;20028;-78
2021/03/21 13:13:03;;;;;;;20.08;14.10;;;3.40;99.90;;;;;;5071805;28;20028;-81
2021/03/21 13:15:30;;;;;;;17.20;13.30;;;3.50;99.90;;;;;;5091082;28;20039;-77
2021/03/21 13:17:56;;;;;;;25.25;15.80;;;3.50;99.90;;;;;;5090207;28;20027;-81
2021/03/21 13:20:22;;;;;;;57.00;34.25;;;3.90;99.90;;;;;;5072921;28;20024;-81
2021/03/21 13:22:49;;;;;;;128.35;68.95;;;4.60;99.90;;;;;;5090073;28;20030;-81
2021/03/21 13:25:23;;;;;;;37.80;26.80;;;5.10;99.90;;;;;;5072916;28;20031;-80
2021/03/21 13:27:56;;;;;;;79.63;44.35;;;5.10;99.90;;;;;;5072815;28;20055;-79
2021/03/21 13:30:26;;;;;;;164.73;90.93;;;5.30;99.90;;;;;;5091162;28;20020;-81